createdAt,value
2019-02-05T00:02:26.085Z,87.53
2019-02-05T00:06:28.959Z,87.65
2019-02-05T00:10:32.201Z,87.68
2019-02-05T00:14:35.034Z,87.65
2019-02-05T00:18:37.794Z,87.69
2019-02-05T00:22:42.569Z,87.97
2019-02-05T00:26:45.616Z,87.90
2019-02-05T00:30:49.517Z,88.05
2019-02-05T00:34:52.260Z,88.02
2019-02-05T00:38:55.223Z,88.00
2019-02-05T00:42:57.934Z,87.95
2019-02-05T00:47:00.756Z,87.96
2019-02-05T00:51:03.785Z,88.02
2019-02-05T00:55:07.259Z,88.27
2019-02-05T00:59:10.146Z,88.31
2019-02-05T01:03:12.960Z,88.35
2019-02-05T01:07:15.928Z,88.65
2019-02-05T01:11:18.782Z,88.71
2019-02-05T01:15:23.369Z,88.81
2019-02-05T01:19:26.223Z,89.22
2019-02-05T01:23:29.119Z,89.33
2019-02-05T01:27:33.715Z,89.42
2019-02-05T01:31:36.475Z,89.60
2019-02-05T01:35:39.312Z,89.64
2019-02-05T01:39:42.498Z,89.62
2019-02-05T01:43:45.448Z,89.89
2019-02-05T01:47:56.612Z,89.86
2019-02-05T01:51:59.503Z,90.05
2019-02-05T01:56:02.467Z,90.00
2019-02-05T02:00:06.528Z,90.17
2019-02-05T02:04:10.276Z,90.25
2019-02-05T02:08:13.527Z,90.22
2019-02-05T02:12:16.266Z,90.19
2019-02-05T02:16:19.012Z,90.24
2019-02-05T02:20:22.406Z,90.44
2019-02-05T02:24:25.212Z,90.70
2019-02-05T02:28:28.193Z,90.77
2019-02-05T02:32:32.432Z,90.97
2019-02-05T02:36:35.355Z,91.18
2019-02-05T02:40:38.333Z,91.12
2019-02-05T02:44:41.068Z,91.24
2019-02-05T02:48:43.823Z,91.25
2019-02-05T02:52:46.672Z,91.33
2019-02-05T02:56:49.404Z,91.46
2019-02-05T03:00:52.268Z,91.54
2019-02-05T03:04:55.014Z,91.77
2019-02-05T03:08:57.975Z,91.85
2019-02-05T03:13:01.007Z,91.89
2019-02-05T03:17:03.956Z,91.94
2019-02-05T03:21:06.988Z,92.06
2019-02-05T03:25:10.917Z,91.96
2019-02-05T03:29:13.666Z,91.95
2019-02-05T03:33:18.060Z,91.97
2019-02-05T03:37:20.787Z,91.98
2019-02-05T03:41:23.685Z,91.91
2019-02-05T03:45:27.819Z,91.94
2019-02-05T03:49:30.692Z,92.14
2019-02-05T03:53:35.824Z,92.04
2019-02-05T03:58:31.153Z,92.01
2019-02-05T04:02:56.889Z,91.97
2019-02-05T04:07:48.113Z,92.00
2019-02-05T04:12:31.460Z,92.00
2019-02-05T04:17:22.732Z,92.13
2019-02-05T04:21:53.308Z,92.08
2019-02-05T04:26:29.886Z,92.14
2019-02-05T04:30:55.744Z,92.19
2019-02-05T04:35:33.727Z,92.26
2019-02-05T04:40:30.537Z,92.54
2019-02-05T04:45:13.883Z,92.50
2019-02-05T04:49:47.702Z,92.55
2019-02-05T04:54:15.417Z,92.69
2019-02-05T04:58:37.418Z,92.75
2019-02-05T05:03:19.228Z,92.79
2019-02-05T05:07:46.728Z,92.66
2019-02-05T05:11:49.189Z,92.72
2019-02-05T05:15:51.707Z,92.68
2019-02-05T05:19:54.564Z,92.87
2019-02-05T05:23:58.624Z,92.85
2019-02-05T05:28:10.222Z,92.80
2019-02-05T05:32:07.833Z,92.91
2019-02-05T05:36:10.638Z,92.83
2019-02-05T05:40:13.663Z,92.82
2019-02-05T05:44:16.650Z,92.70
2019-02-05T05:48:19.387Z,92.75
2019-02-05T05:52:22.268Z,92.63
2019-02-05T05:56:25.192Z,92.56
2019-02-05T06:00:28.128Z,92.53
2019-02-05T06:04:30.963Z,92.58
2019-02-05T06:08:33.963Z,92.68
2019-02-05T06:12:36.767Z,92.52
2019-02-05T06:16:39.637Z,92.44
2019-02-05T06:20:42.412Z,92.52
2019-02-05T06:24:45.153Z,92.51
2019-02-05T06:28:48.144Z,92.53
2019-02-05T06:32:51.121Z,92.50
2019-02-05T06:36:54.164Z,92.45
2019-02-05T06:40:57.180Z,92.41
2019-02-05T06:45:00.325Z,92.29
2019-02-05T06:49:03.192Z,92.36
2019-02-05T06:53:06.275Z,92.41
2019-02-05T06:57:09.384Z,92.43
2019-02-05T07:01:12.235Z,92.50
2019-02-05T07:05:15.735Z,92.56
2019-02-05T07:09:18.531Z,92.53
2019-02-05T07:13:21.315Z,92.44
2019-02-05T07:17:24.197Z,92.42
2019-02-05T07:21:27.038Z,92.58
2019-02-05T07:25:29.854Z,92.54
2019-02-05T07:29:32.776Z,92.53
2019-02-05T07:33:35.550Z,92.49
2019-02-05T07:37:38.262Z,92.51
2019-02-05T07:41:41.251Z,92.54
2019-02-05T07:45:44.039Z,92.47
2019-02-05T07:49:48.567Z,92.52
2019-02-05T07:53:51.624Z,92.53
2019-02-05T07:57:54.444Z,92.45
2019-02-05T08:01:57.193Z,92.41
2019-02-05T08:06:00.007Z,92.31
2019-02-05T08:10:02.836Z,92.29
2019-02-05T08:14:06.271Z,92.27
2019-02-05T08:18:09.249Z,92.24
2019-02-05T08:22:12.012Z,92.20
2019-02-05T08:26:15.018Z,92.13
2019-02-05T08:30:23.676Z,92.09
2019-02-05T08:34:26.563Z,92.01
2019-02-05T08:38:29.270Z,91.94
2019-02-05T08:42:32.263Z,91.95
2019-02-05T08:46:35.019Z,91.96
2019-02-05T08:50:38.770Z,91.92
2019-02-05T08:54:41.460Z,91.90
2019-02-05T08:58:44.430Z,91.94
2019-02-05T09:02:47.272Z,91.90
2019-02-05T09:06:50.048Z,91.78
2019-02-05T09:10:52.931Z,91.79
2019-02-05T09:14:55.881Z,91.78
2019-02-05T09:18:59.567Z,91.75
2019-02-05T09:23:02.507Z,91.72
2019-02-05T09:27:05.304Z,91.70
2019-02-05T09:31:08.151Z,91.66
2019-02-05T09:35:11.212Z,91.71
2019-02-05T09:39:14.155Z,91.64
2019-02-05T09:43:20.077Z,91.48
2019-02-05T09:47:22.905Z,91.50
2019-02-05T09:51:25.869Z,91.51
2019-02-05T09:55:28.712Z,91.15
2019-02-05T09:59:31.594Z,91.16
2019-02-05T10:03:34.419Z,91.24
2019-02-05T10:07:36.976Z,91.04
2019-02-05T10:11:39.864Z,91.07
2019-02-05T10:15:43.655Z,90.96
2019-02-05T10:19:46.425Z,90.64
2019-02-05T10:23:49.139Z,90.72
2019-02-05T10:27:51.835Z,90.75
2019-02-05T10:31:54.608Z,90.48
2019-02-05T10:35:57.204Z,90.25
2019-02-05T10:40:00.855Z,90.42
2019-02-05T10:44:03.795Z,90.41
2019-02-05T10:48:08.621Z,90.52
2019-02-05T10:52:11.354Z,90.62
2019-02-05T10:56:14.280Z,90.78
2019-02-05T11:00:27.346Z,90.76
2019-02-05T11:04:29.936Z,90.82
2019-02-05T11:08:32.616Z,90.98
2019-02-05T11:12:35.105Z,90.84
2019-02-05T11:16:37.524Z,91.00
2019-02-05T11:20:40.540Z,91.00
2019-02-05T11:24:43.105Z,90.81
2019-02-05T11:28:45.520Z,91.00
2019-02-05T11:32:48.172Z,91.24
2019-02-05T11:36:50.765Z,91.04
2019-02-05T11:40:53.507Z,91.47
2019-02-05T11:44:56.062Z,91.67
2019-02-05T11:48:58.682Z,91.81
2019-02-05T11:53:01.536Z,91.63
2019-02-05T11:57:04.527Z,91.67
2019-02-05T12:01:11.839Z,91.73
2019-02-05T12:05:15.664Z,91.50
2019-02-05T12:09:21.568Z,91.36
2019-02-05T12:13:24.478Z,90.98
2019-02-05T12:17:27.201Z,91.16
2019-02-05T12:21:30.406Z,90.70
2019-02-05T12:25:33.301Z,90.68
2019-02-05T12:29:36.404Z,90.91
2019-02-05T12:33:39.044Z,90.91
2019-02-05T12:37:42.038Z,91.18
2019-02-05T12:41:44.678Z,91.47
2019-02-05T12:45:47.656Z,91.69
2019-02-05T12:49:50.476Z,91.87
2019-02-05T12:53:53.195Z,92.03
2019-02-05T12:57:56.395Z,91.98
2019-02-05T13:01:59.240Z,91.91
2019-02-05T13:06:02.141Z,91.60
2019-02-05T13:10:05.232Z,91.68
2019-02-05T13:14:09.513Z,91.78
2019-02-05T13:18:12.339Z,91.59
2019-02-05T13:22:15.237Z,91.71
2019-02-05T13:26:17.843Z,91.71
2019-02-05T13:30:23.551Z,91.23
2019-02-05T13:34:26.160Z,91.43
2019-02-05T13:38:28.792Z,92.34
2019-02-05T13:42:31.567Z,92.53
2019-02-05T13:46:34.387Z,92.13
2019-02-05T13:50:37.073Z,92.28
2019-02-05T13:54:39.636Z,92.20
2019-02-05T13:58:43.492Z,92.26
2019-02-05T14:02:46.045Z,91.94
2019-02-05T14:06:50.565Z,91.97
2019-02-05T14:10:54.975Z,92.16
2019-02-05T14:14:57.512Z,92.29
2019-02-05T14:18:59.968Z,92.23
2019-02-05T14:23:02.555Z,91.98
2019-02-05T14:27:05.289Z,92.41
2019-02-05T14:31:08.367Z,92.13
2019-02-05T14:35:11.362Z,91.65
2019-02-05T14:39:14.305Z,91.46
2019-02-05T14:43:16.869Z,92.12
2019-02-05T14:47:19.688Z,92.36
2019-02-05T14:51:22.119Z,92.49
2019-02-05T14:55:24.745Z,92.49
2019-02-05T14:59:27.294Z,92.14
2019-02-05T15:03:29.881Z,92.28
2019-02-05T15:07:33.031Z,92.12
2019-02-05T15:11:35.705Z,92.02
2019-02-05T15:15:38.352Z,91.88
2019-02-05T15:19:41.105Z,92.69
2019-02-05T15:23:43.738Z,92.94
2019-02-05T15:27:47.504Z,92.80
2019-02-05T15:31:54.679Z,92.70
2019-02-05T15:36:00.393Z,92.36
2019-02-05T15:40:03.268Z,92.05
2019-02-05T15:44:06.296Z,92.46
2019-02-05T15:48:08.919Z,92.71
2019-02-05T15:52:11.982Z,92.95
2019-02-05T15:56:14.954Z,92.57
2019-02-05T16:00:18.627Z,92.81
2019-02-05T16:04:21.187Z,92.87
2019-02-05T16:08:23.647Z,92.85
2019-02-05T16:12:28.072Z,92.74
2019-02-05T16:16:31.709Z,92.80
2019-02-05T16:20:34.148Z,92.74
2019-02-05T16:24:36.673Z,92.60
2019-02-05T16:28:39.233Z,92.55
2019-02-05T16:32:41.887Z,92.29
2019-02-05T16:36:44.332Z,92.02
2019-02-05T16:40:47.348Z,92.12
2019-02-05T16:44:56.038Z,91.87
2019-02-05T16:48:58.529Z,92.20
2019-02-05T16:53:01.344Z,92.76
2019-02-05T16:57:04.229Z,92.93
2019-02-05T17:01:07.102Z,92.76
2019-02-05T17:05:10.954Z,92.87
2019-02-05T17:09:17.641Z,92.78
2019-02-05T17:13:20.625Z,92.66
2019-02-05T17:17:23.280Z,92.54
2019-02-05T17:21:26.919Z,92.63
2019-02-05T17:25:29.677Z,92.88
2019-02-05T17:29:32.408Z,92.77
2019-02-05T17:33:35.059Z,92.26
2019-02-05T17:37:39.498Z,92.06
2019-02-05T17:41:41.844Z,91.92
2019-02-05T17:45:45.243Z,91.92
2019-02-05T17:49:47.653Z,91.78
2019-02-05T17:53:52.222Z,91.90
2019-02-05T17:57:55.097Z,91.91
2019-02-05T18:01:58.515Z,91.73
2019-02-05T18:06:01.375Z,91.97
2019-02-05T18:10:03.819Z,91.93
2019-02-05T18:14:06.852Z,91.89
2019-02-05T18:18:09.474Z,91.81
2019-02-05T18:22:12.227Z,91.86
2019-02-05T18:26:14.658Z,91.95
2019-02-05T18:30:29.003Z,91.94
2019-02-05T18:34:31.412Z,91.99
2019-02-05T18:38:34.143Z,92.00
2019-02-05T18:42:37.015Z,92.02
2019-02-05T18:46:39.647Z,92.02
2019-02-05T18:50:42.209Z,92.05
2019-02-05T18:54:44.561Z,91.97
2019-02-05T18:58:46.983Z,91.97
2019-02-05T19:02:49.509Z,92.01
2019-02-05T19:06:52.065Z,92.09
2019-02-05T19:10:54.523Z,92.07
2019-02-05T19:14:58.204Z,92.07
2019-02-05T19:19:01.092Z,92.05
2019-02-05T19:23:04.643Z,91.97
2019-02-05T19:27:07.351Z,91.94
2019-02-05T19:31:28.745Z,91.95
2019-02-05T19:35:31.304Z,92.03
2019-02-05T19:39:34.076Z,92.09
2019-02-05T19:43:36.405Z,92.08
2019-02-05T19:47:39.305Z,92.13
2019-02-05T19:51:42.335Z,92.18
2019-02-05T19:55:45.208Z,92.16
2019-02-05T19:59:49.974Z,92.18
2019-02-05T20:03:53.509Z,92.25
2019-02-05T20:07:57.292Z,92.25
2019-02-05T20:11:59.750Z,92.19
2019-02-05T20:16:02.528Z,92.16
2019-02-05T20:20:05.321Z,92.09
2019-02-05T20:24:07.783Z,92.03
2019-02-05T20:28:10.668Z,92.02
2019-02-05T20:32:13.143Z,92.08
2019-02-05T20:36:15.678Z,92.09
2019-02-05T20:40:19.164Z,92.08
2019-02-05T20:44:21.680Z,92.13
2019-02-05T20:48:24.035Z,92.19
2019-02-05T20:52:26.435Z,92.15
2019-02-05T20:56:30.962Z,92.12
2019-02-05T21:00:33.194Z,92.07
2019-02-05T21:04:35.693Z,92.02
2019-02-05T21:08:39.785Z,91.85
2019-02-05T21:12:42.154Z,91.82
2019-02-05T21:16:44.868Z,91.69
2019-02-05T21:20:47.234Z,91.57
2019-02-05T21:24:50.905Z,91.44
2019-02-05T21:28:53.273Z,91.32
2019-02-05T21:32:56.085Z,90.95
2019-02-05T21:36:58.716Z,90.95
2019-02-05T21:41:01.198Z,90.90
2019-02-05T21:45:03.839Z,90.96
2019-02-05T21:49:07.195Z,91.07
2019-02-05T21:53:09.575Z,91.08
2019-02-05T21:57:12.022Z,91.12
2019-02-05T22:01:14.688Z,91.15
2019-02-05T22:05:17.643Z,91.12
2019-02-05T22:09:20.113Z,91.22
2019-02-05T22:13:22.700Z,91.20
2019-02-05T22:17:26.907Z,91.04
2019-02-05T22:21:29.443Z,91.01
2019-02-05T22:25:32.515Z,91.15
2019-02-05T22:29:35.342Z,90.96
2019-02-05T22:33:37.695Z,91.06
2019-02-05T22:37:40.767Z,91.12
2019-02-05T22:41:43.117Z,91.14
2019-02-05T22:45:45.520Z,91.17
2019-02-05T22:49:47.994Z,91.15
2019-02-05T22:53:50.697Z,91.03
2019-02-05T22:57:53.399Z,91.01
2019-02-05T23:01:59.103Z,90.94
2019-02-05T23:06:11.273Z,90.73
2019-02-05T23:10:51.622Z,90.84
2019-02-05T23:14:59.019Z,90.81
2019-02-05T23:19:01.981Z,90.87
2019-02-05T23:23:04.644Z,90.86
2019-02-05T23:27:07.172Z,90.88
2019-02-05T23:31:09.723Z,90.86
2019-02-05T23:35:12.332Z,90.94
2019-02-05T23:39:15.002Z,90.97
2019-02-05T23:43:17.417Z,91.01
2019-02-05T23:47:20.248Z,91.07
2019-02-05T23:51:22.662Z,91.21
2019-02-05T23:55:25.516Z,91.27
2019-02-05T23:59:27.959Z,91.44
